Time;durP1;ratioP1;P1;durP2;ratioP2;P2;SDS_P1;SDS_P2;PMS_P1;PMS_P2;Temp;Humidity;BMP_temperature;BMP_pressure;BME280_temperature;BME280_humidity;BME280_pressure;Samples;Min_cycle;Max_cycle;Signal;HPM_P1;HPM_P2
2021/06/16 00:02:32;;;;;;;1.90;0.70;;;16.60;99.90;;;;;;20732413;28;20067;-49
2021/06/16 00:12:34;;;;;;;2.70;1.02;;;16.50;99.90;;;;;;20730492;28;20091;-49
2021/06/16 00:22:35;;;;;;;1.75;0.50;;;16.50;99.90;;;;;;20724848;28;20123;-49
2021/06/16 00:32:38;;;;;;;5.40;1.88;;;16.40;99.90;;;;;;20725522;28;20053;-49
2021/06/16 00:42:39;;;;;;;2.38;0.80;;;16.40;99.90;;;;;;20722940;28;20074;-49
2021/06/16 00:52:41;;;;;;;1.58;0.73;;;16.50;99.90;;;;;;20728786;28;20053;-49
2021/06/16 01:03:16;;;;;;;2.55;1.05;;;16.50;99.90;;;;;;20741116;28;20042;-49
2021/06/16 01:13:25;;;;;;;1.52;0.77;;;16.40;99.90;;;;;;20798594;28;20057;-49
2021/06/16 01:23:39;;;;;;;1.95;0.80;;;16.30;99.90;;;;;;20733039;28;20053;-49
2021/06/16 01:33:40;;;;;;;4.80;1.40;;;16.10;99.90;;;;;;20729310;28;20309;-49
2021/06/16 01:43:43;;;;;;;1.98;0.80;;;15.90;99.90;;;;;;20734012;28;20042;-49
2021/06/16 01:53:45;;;;;;;4.20;1.27;;;15.80;99.90;;;;;;20745717;28;20069;-49
2021/06/16 02:03:46;;;;;;;2.08;1.05;;;15.70;99.90;;;;;;20738906;28;20061;-49
2021/06/16 02:13:54;;;;;;;2.30;1.10;;;15.80;99.90;;;;;;20742561;28;20552;-49
2021/06/16 02:23:56;;;;;;;10.05;1.92;;;15.70;99.90;;;;;;20737546;28;20077;-49
2021/06/16 02:33:58;;;;;;;2.85;1.10;;;15.60;99.90;;;;;;20732194;28;20048;-49
2021/06/16 02:43:59;;;;;;;3.47;1.20;;;15.50;99.90;;;;;;20751271;28;20042;-49
2021/06/16 02:54:02;;;;;;;6.75;1.40;;;15.40;99.90;;;;;;20726374;28;20133;-49
2021/06/16 03:04:05;;;;;;;10.60;1.75;;;15.40;99.90;;;;;;20736276;28;22932;-49
2021/06/16 03:14:06;;;;;;;4.72;1.60;;;15.40;99.90;;;;;;20725303;28;20045;-49
2021/06/16 03:24:10;;;;;;;2.63;1.27;;;15.40;99.90;;;;;;20747850;28;20041;-49
2021/06/16 03:34:11;;;;;;;5.57;1.20;;;15.30;99.90;;;;;;20757166;28;20088;-49
2021/06/16 03:44:14;;;;;;;2.65;1.15;;;15.30;99.90;;;;;;20751703;28;20048;-49
2021/06/16 03:54:16;;;;;;;3.25;1.23;;;15.30;99.90;;;;;;20751396;28;20049;-49
2021/06/16 04:04:17;;;;;;;5.45;1.63;;;15.30;99.90;;;;;;20739613;28;20068;-49
2021/06/16 04:14:22;;;;;;;3.10;1.20;;;15.30;99.90;;;;;;20725126;28;20040;-49
2021/06/16 04:24:23;;;;;;;4.38;1.40;;;15.40;99.90;;;;;;20730509;28;20041;-49
2021/06/16 04:34:24;;;;;;;4.85;1.20;;;15.50;99.90;;;;;;20726382;28;20152;-49
2021/06/16 04:44:25;;;;;;;2.85;1.25;;;15.50;99.90;;;;;;20725556;28;20048;-49
2021/06/16 04:54:26;;;;;;;5.30;1.30;;;15.70;99.90;;;;;;20725175;28;20092;-49
2021/06/16 05:04:28;;;;;;;8.85;2.03;;;15.80;99.90;;;;;;20756624;28;20038;-49
2021/06/16 05:14:29;;;;;;;3.38;1.00;;;16.10;99.90;;;;;;20739216;28;20053;-49
2021/06/16 05:24:31;;;;;;;2.42;1.02;;;16.50;99.90;;;;;;20762939;28;20129;-49
2021/06/16 05:34:32;;;;;;;2.30;1.13;;;17.10;99.90;;;;;;20774335;28;20076;-49
2021/06/16 05:44:33;;;;;;;3.40;1.52;;;17.40;99.90;;;;;;20749461;28;20046;-49
2021/06/16 05:54:38;;;;;;;5.30;1.67;;;17.90;99.90;;;;;;20762704;28;20038;-49
2021/06/16 06:04:39;;;;;;;3.58;1.77;;;18.70;99.90;;;;;;20732028;28;20042;-49
2021/06/16 06:14:40;;;;;;;3.08;1.10;;;19.20;99.90;;;;;;20728751;28;20046;-49
2021/06/16 06:24:41;;;;;;;1.95;0.95;;;19.70;99.90;;;;;;20791998;28;20045;-49
2021/06/16 06:34:43;;;;;;;2.70;0.65;;;20.20;99.90;;;;;;20810260;28;20103;-49
2021/06/16 06:44:44;;;;;;;3.03;0.55;;;20.50;99.90;;;;;;20806777;28;20132;-49
2021/06/16 06:54:45;;;;;;;2.55;0.90;;;20.90;99.90;;;;;;20808079;28;20045;-49
2021/06/16 07:04:47;;;;;;;1.40;0.60;;;21.40;99.90;;;;;;20808217;28;20044;-49
2021/06/16 07:14:49;;;;;;;2.47;0.77;;;21.80;99.90;;;;;;20842920;28;20124;-47
2021/06/16 07:24:50;;;;;;;2.20;0.75;;;22.10;99.90;;;;;;20839812;28;20037;-48
2021/06/16 07:34:51;;;;;;;1.10;0.70;;;22.40;99.90;;;;;;20834604;28;20088;-48
2021/06/16 07:44:52;;;;;;;3.55;0.60;;;22.50;99.90;;;;;;20867783;28;20052;-48
2021/06/16 07:54:54;;;;;;;1.30;0.80;;;22.80;99.90;;;;;;20847465;28;20048;-48
2021/06/16 08:04:55;;;;;;;2.80;1.00;;;23.00;99.90;;;;;;20849594;28;20041;-48
2021/06/16 08:14:56;;;;;;;4.30;0.90;;;23.40;99.90;;;;;;20855747;28;20041;-48
2021/06/16 08:25:00;;;;;;;2.13;1.02;;;23.60;99.90;;;;;;20838894;28;20037;-48
2021/06/16 08:35:03;;;;;;;2.13;0.75;;;24.00;99.90;;;;;;20818017;28;20048;-48
2021/06/16 08:45:06;;;;;;;1.50;0.75;;;24.30;99.90;;;;;;20821900;28;20069;-48
2021/06/16 08:55:13;;;;;;;3.83;0.85;;;24.50;99.90;;;;;;20847137;28;20064;-48
2021/06/16 09:05:14;;;;;;;2.50;1.00;;;24.80;99.30;;;;;;20830002;28;20047;-48
2021/06/16 09:15:19;;;;;;;1.73;0.77;;;25.10;99.90;;;;;;20826473;28;20099;-47
2021/06/16 09:25:22;;;;;;;1.73;0.63;;;25.50;98.30;;;;;;20808780;28;20096;-47
2021/06/16 09:35:32;;;;;;;4.75;0.90;;;25.50;98.30;;;;;;20821681;28;20045;-47
2021/06/16 09:45:34;;;;;;;1.63;0.70;;;25.70;98.80;;;;;;20825779;28;20061;-48
2021/06/16 09:55:36;;;;;;;1.92;1.10;;;26.10;98.40;;;;;;20831696;28;20041;-47
2021/06/16 10:06:16;;;;;;;1.45;1.08;;;26.40;96.30;;;;;;20808445;28;20045;-47
2021/06/16 10:16:17;;;;;;;3.75;0.95;;;26.50;97.00;;;;;;20813253;28;20077;-48
2021/06/16 10:26:30;;;;;;;2.88;1.20;;;26.50;97.40;;;;;;20824010;28;20111;-47
2021/06/16 10:36:32;;;;;;;3.38;1.10;;;27.20;96.50;;;;;;20827566;28;20053;-47
2021/06/16 10:46:52;;;;;;;2.53;1.30;;;27.60;96.50;;;;;;20830998;28;20041;-47
2021/06/16 10:57:11;;;;;;;1.73;0.82;;;27.70;95.10;;;;;;20819086;28;20126;-48
2021/06/16 11:07:31;;;;;;;1.80;0.80;;;27.60;95.50;;;;;;20825424;28;20046;-48
2021/06/16 11:17:35;;;;;;;2.38;1.27;;;27.70;95.20;;;;;;20821459;28;20037;-47
2021/06/16 11:27:52;;;;;;;1.90;1.00;;;28.30;94.30;;;;;;20825905;28;20141;-48
2021/06/16 11:38:00;;;;;;;2.35;1.00;;;28.90;94.60;;;;;;20815829;28;20065;-47
2021/06/16 11:48:01;;;;;;;3.03;1.55;;;29.10;93.70;;;;;;20835113;28;20056;-48
2021/06/16 11:58:32;;;;;;;4.07;2.03;;;28.60;93.70;;;;;;20819852;28;20044;-48
2021/06/16 12:08:35;;;;;;;5.65;2.03;;;29.50;93.40;;;;;;20814623;28;20044;-48
2021/06/16 12:18:36;;;;;;;4.03;2.10;;;29.90;93.70;;;;;;20819089;28;20133;-48
2021/06/16 12:28:43;;;;;;;4.80;2.38;;;30.60;93.50;;;;;;20799228;28;20140;-48
2021/06/16 12:38:53;;;;;;;2.80;1.60;;;29.90;92.60;;;;;;20801034;28;20097;-48
2021/06/16 12:49:14;;;;;;;6.95;1.80;;;29.30;93.60;;;;;;20812288;28;20049;-48
2021/06/16 12:59:15;;;;;;;2.88;1.60;;;29.00;94.40;;;;;;20810632;28;20045;-48
2021/06/16 13:09:22;;;;;;;5.15;2.88;;;28.10;95.00;;;;;;20815642;28;20049;-48
2021/06/16 13:19:24;;;;;;;4.10;1.98;;;29.40;94.60;;;;;;20816767;28;20041;-48
2021/06/16 13:29:29;;;;;;;4.15;1.85;;;29.90;93.40;;;;;;20825262;28;20041;-48
2021/06/16 13:39:30;;;;;;;3.45;1.70;;;30.00;93.60;;;;;;20827988;28;20053;-48
2021/06/16 13:49:31;;;;;;;3.83;2.00;;;29.50;93.90;;;;;;20776579;28;20049;-48
2021/06/16 13:59:32;;;;;;;3.25;1.80;;;29.50;94.00;;;;;;20751745;28;20113;-48
2021/06/16 14:09:33;;;;;;;7.70;1.75;;;29.60;94.10;;;;;;20739461;28;20081;-48
2021/06/16 14:19:35;;;;;;;3.47;2.20;;;29.50;95.50;;;;;;20739427;28;20137;-48
2021/06/16 14:29:36;;;;;;;4.70;2.42;;;29.90;92.40;;;;;;20753698;28;20049;-48
2021/06/16 14:39:37;;;;;;;3.00;1.80;;;29.50;94.00;;;;;;20791833;28;20099;-48
2021/06/16 14:49:38;;;;;;;2.78;1.75;;;29.70;93.00;;;;;;20730982;28;20078;-48
2021/06/16 14:59:40;;;;;;;2.95;2.17;;;29.50;93.10;;;;;;20761608;28;20040;-48
2021/06/16 15:09:41;;;;;;;4.32;2.40;;;29.50;92.80;;;;;;20741578;28;20292;-48
2021/06/16 15:19:44;;;;;;;3.70;2.30;;;29.50;92.70;;;;;;20761645;28;20045;-48
2021/06/16 15:29:46;;;;;;;3.15;1.98;;;29.10;92.70;;;;;;20738214;28;20050;-48
2021/06/16 15:39:47;;;;;;;4.28;2.25;;;29.20;93.80;;;;;;20750193;28;20038;-48
2021/06/16 15:49:49;;;;;;;3.67;2.42;;;29.50;94.00;;;;;;20746300;28;20076;-48
2021/06/16 15:59:50;;;;;;;5.20;3.00;;;29.60;93.90;;;;;;20756359;28;20034;-48
2021/06/16 16:09:51;;;;;;;4.20;2.90;;;29.60;93.00;;;;;;20764095;28;20577;-48
2021/06/16 16:19:52;;;;;;;4.15;2.80;;;29.50;93.30;;;;;;20736666;28;20056;-48
2021/06/16 16:29:54;;;;;;;5.25;2.30;;;29.50;94.20;;;;;;20743975;28;20202;-48
2021/06/16 16:39:55;;;;;;;6.70;2.13;;;29.00;94.80;;;;;;20741956;28;22024;-48
2021/06/16 16:49:57;;;;;;;5.60;2.47;;;28.60;96.50;;;;;;20754880;28;20119;-48
2021/06/16 16:59:59;;;;;;;3.22;1.90;;;28.20;98.10;;;;;;20743570;28;20060;-48
2021/06/16 17:10:00;;;;;;;8.07;2.03;;;27.80;98.80;;;;;;20780021;28;20046;-48
2021/06/16 17:20:02;;;;;;;5.35;4.03;;;27.60;98.70;;;;;;20770021;28;20061;-48
2021/06/16 17:30:06;;;;;;;3.17;2.05;;;27.40;99.00;;;;;;20834095;28;20060;-48
2021/06/16 17:40:12;;;;;;;4.22;2.05;;;27.20;99.90;;;;;;20790223;28;20081;-48
2021/06/16 17:50:15;;;;;;;4.00;2.43;;;26.60;99.90;;;;;;20826312;28;20056;-48
2021/06/16 18:00:29;;;;;;;2.83;1.70;;;26.40;99.90;;;;;;20811303;28;20045;-48
2021/06/16 18:10:34;;;;;;;3.28;1.75;;;26.00;99.90;;;;;;20802291;28;20072;-48
2021/06/16 18:20:36;;;;;;;3.63;2.17;;;26.00;99.90;;;;;;20801475;28;20059;-48
2021/06/16 18:30:38;;;;;;;4.80;2.47;;;26.00;99.90;;;;;;20798585;28;20045;-48
2021/06/16 18:40:39;;;;;;;2.40;1.75;;;25.90;99.90;;;;;;20787216;28;20075;-48
2021/06/16 18:50:40;;;;;;;4.03;1.70;;;25.80;99.90;;;;;;20807897;28;20049;-48
2021/06/16 19:00:44;;;;;;;3.33;1.92;;;25.80;99.90;;;;;;20811922;28;20181;-48
2021/06/16 19:10:47;;;;;;;3.65;2.33;;;25.70;99.90;;;;;;20815006;28;21396;-48
2021/06/16 19:20:48;;;;;;;4.40;2.25;;;25.70;99.90;;;;;;20789175;28;20515;-49
2021/06/16 19:30:49;;;;;;;6.72;2.53;;;25.50;99.90;;;;;;20808514;28;20080;-49
2021/06/16 19:40:51;;;;;;;3.42;1.88;;;25.50;99.90;;;;;;20790586;28;20061;-49
2021/06/16 19:50:52;;;;;;;3.55;1.95;;;25.30;99.90;;;;;;20813542;28;20064;-48
2021/06/16 20:00:56;;;;;;;4.13;2.58;;;25.10;99.90;;;;;;20803204;28;20048;-49
2021/06/16 20:10:58;;;;;;;4.28;2.03;;;24.90;99.90;;;;;;20814353;28;20069;-49
2021/06/16 20:20:59;;;;;;;4.85;2.58;;;24.60;99.90;;;;;;20812319;28;20428;-49
2021/06/16 20:31:00;;;;;;;3.67;2.38;;;24.30;99.90;;;;;;20799362;28;20428;-49
2021/06/16 20:41:01;;;;;;;3.42;2.20;;;24.10;99.90;;;;;;20804852;28;20127;-49
2021/06/16 20:51:04;;;;;;;3.38;2.58;;;23.90;99.90;;;;;;20812315;28;20396;-49
2021/06/16 21:01:05;;;;;;;4.43;2.47;;;23.60;99.90;;;;;;20804832;28;20431;-48
2021/06/16 21:11:07;;;;;;;3.78;2.00;;;23.40;99.90;;;;;;20799486;28;20382;-48
2021/06/16 21:21:08;;;;;;;4.32;2.70;;;23.20;99.90;;;;;;20809355;28;21210;-48
2021/06/16 21:31:09;;;;;;;4.78;2.63;;;23.10;99.90;;;;;;20803896;28;20564;-48
2021/06/16 21:41:10;;;;;;;6.50;2.92;;;23.00;99.90;;;;;;20806150;28;20452;-48
2021/06/16 21:51:12;;;;;;;5.80;3.05;;;22.80;99.90;;;;;;20832327;28;20724;-48
2021/06/16 22:01:13;;;;;;;6.57;2.85;;;22.70;99.90;;;;;;20818004;28;20427;-48
2021/06/16 22:11:15;;;;;;;4.88;2.70;;;22.50;99.90;;;;;;20817320;28;20417;-48
2021/06/16 22:21:16;;;;;;;3.85;2.40;;;22.30;99.90;;;;;;20821981;28;20535;-48
2021/06/16 22:31:20;;;;;;;4.93;3.03;;;22.20;99.90;;;;;;20817926;28;20485;-48
2021/06/16 22:41:22;;;;;;;5.97;2.88;;;22.00;99.90;;;;;;20817439;28;20482;-48
2021/06/16 22:51:23;;;;;;;4.15;2.40;;;21.90;99.90;;;;;;20810558;28;20505;-48
2021/06/16 23:01:24;;;;;;;5.32;3.15;;;21.70;99.90;;;;;;20810511;28;20587;-49
2021/06/16 23:11:29;;;;;;;5.50;2.95;;;21.50;99.90;;;;;;20812521;28;20584;-48
2021/06/16 23:21:30;;;;;;;6.05;2.85;;;21.40;99.90;;;;;;20829271;28;20042;-48
2021/06/16 23:31:31;;;;;;;3.80;2.28;;;21.30;99.90;;;;;;20812763;28;20072;-49
2021/06/16 23:41:32;;;;;;;4.93;3.33;;;21.30;99.90;;;;;;20811480;28;20711;-48
2021/06/16 23:51:33;;;;;;;5.68;3.22;;;21.20;99.90;;;;;;20816767;28;20568;-48
